Time;durP1;ratioP1;P1;durP2;ratioP2;P2;SDS_P1;SDS_P2;PMS_P1;PMS_P2;Temp;Humidity;BMP_temperature;BMP_pressure;BME280_temperature;BME280_humidity;BME280_pressure;Samples;Min_cycle;Max_cycle;Signal;HPM_P1;HPM_P2
2020/12/30 00:00:35;;;;;;;157.15;81.82;;;;;;;0.18;77.22;93815.34;1689047;84;21115;-51
2020/12/30 00:03:03;;;;;;;166.97;85.47;;;;;;;0.14;77.32;93821.95;1693415;83;21530;-50
2020/12/30 00:05:31;;;;;;;160.43;81.80;;;;;;;0.12;77.40;93824.30;1690607;84;21102;-50
2020/12/30 00:08:00;;;;;;;173.02;88.65;;;;;;;0.13;77.42;93822.55;1679694;84;21426;-50
2020/12/30 00:10:27;;;;;;;167.37;87.65;;;;;;;0.15;77.40;93818.86;1696694;84;21173;-50
2020/12/30 00:12:56;;;;;;;169.72;86.65;;;;;;;0.17;77.37;93825.98;1744324;80;21264;-50
2020/12/30 00:15:23;;;;;;;170.12;87.45;;;;;;;0.13;77.16;93826.61;1749670;81;21276;-49
2020/12/30 00:17:51;;;;;;;166.50;87.53;;;;;;;0.08;77.17;93825.67;1685313;84;21171;-51
2020/12/30 00:20:20;;;;;;;180.15;89.67;;;;;;;0.08;77.38;93828.98;1690415;84;21185;-50
2020/12/30 00:22:48;;;;;;;210.97;105.63;;;;;;;0.09;77.31;93842.11;1742212;81;21337;-51
2020/12/30 00:25:16;;;;;;;171.13;89.58;;;;;;;0.08;77.51;93841.90;1745951;81;21149;-50
2020/12/30 00:27:45;;;;;;;269.70;119.17;;;;;;;0.13;77.49;93838.77;1693078;83;23540;-50
2020/12/30 00:30:18;;;;;;;168.55;90.97;;;;;;;0.16;77.30;93836.61;1706572;83;21947;-50
2020/12/30 00:32:46;;;;;;;197.33;92.33;;;;;;;0.17;77.10;93843.55;1755907;80;21080;-50
2020/12/30 00:35:16;;;;;;;188.72;88.05;;;;;;;0.16;77.11;93847.42;1755267;80;21120;-50
2020/12/30 00:37:44;;;;;;;234.67;100.07;;;;;;;0.12;77.13;93836.46;1697033;84;21200;-50
2020/12/30 00:40:13;;;;;;;213.60;97.80;;;;;;;0.08;77.36;93833.79;1705288;84;21405;-50
2020/12/30 00:42:41;;;;;;;218.57;103.95;;;;;;;0.11;77.43;93834.36;1689279;84;21489;-50
2020/12/30 00:45:09;;;;;;;216.05;102.87;;;;;;;0.17;77.27;93826.55;1693617;84;21568;-51
2020/12/30 00:47:38;;;;;;;211.00;99.50;;;;;;;0.18;77.17;93835.63;1680158;84;21095;-50
2020/12/30 00:50:07;;;;;;;161.18;78.28;;;;;;;0.20;77.16;93829.82;1706505;84;21183;-51
2020/12/30 00:52:36;;;;;;;176.10;81.40;;;;;;;0.17;77.21;93811.11;1690484;83;21387;-50
2020/12/30 00:55:05;;;;;;;181.82;93.87;;;;;;;0.20;77.32;93836.58;1706504;84;21101;-50
2020/12/30 00:57:43;;;;;;;150.62;75.35;;;;;;;0.18;77.05;93801.83;1777009;79;22709;-51
2020/12/30 01:00:12;;;;;;;150.95;73.97;;;;;;;0.13;77.10;93813.09;1749636;82;21068;-51
2020/12/30 01:02:58;;;;;;;166.62;84.97;;;;;;;0.02;76.93;93801.62;1749668;82;22647;-50
2020/12/30 01:05:26;;;;;;;156.97;78.78;;;;;;;-0.09;77.09;93794.02;1749549;82;21091;-51
2020/12/30 01:07:54;;;;;;;148.82;77.32;;;;;;;-0.15;77.52;93792.94;1749614;82;21130;-50
2020/12/30 01:10:21;;;;;;;225.55;115.42;;;;;;;-0.15;77.94;93799.69;1749627;80;21417;-51
2020/12/30 01:12:51;;;;;;;208.78;107.00;;;;;;;-0.10;78.00;93791.14;1749643;82;21095;-50
2020/12/30 01:15:18;;;;;;;195.82;92.27;;;;;;;-0.05;77.80;93787.41;1749593;82;21350;-50
2020/12/30 01:17:46;;;;;;;190.47;95.70;;;;;;;-0.03;77.79;93785.07;1749572;82;21167;-49
2020/12/30 01:20:14;;;;;;;167.15;85.17;;;;;;;-0.04;77.93;93790.30;1749609;82;21072;-49
2020/12/30 01:22:42;;;;;;;165.97;92.12;;;;;;;0.01;78.06;93792.58;1749589;82;21073;-51
2020/12/30 01:25:10;;;;;;;141.92;75.95;;;;;;;0.07;78.20;93789.00;1749614;82;21048;-50
2020/12/30 01:27:38;;;;;;;126.55;71.15;;;;;;;0.17;78.35;93778.66;1749592;82;21456;-51
2020/12/30 01:30:06;;;;;;;124.80;64.67;;;;;;;0.27;78.07;93777.00;1749522;82;21088;-50
2020/12/30 01:32:34;;;;;;;161.88;86.17;;;;;;;0.27;77.76;93778.34;1749584;80;21076;-50
2020/12/30 01:35:02;;;;;;;140.05;71.35;;;;;;;0.22;77.61;93778.20;1749573;82;21556;-50
2020/12/30 01:37:30;;;;;;;128.75;71.37;;;;;;;0.20;77.48;93773.04;1749555;82;21073;-50
2020/12/30 01:39:58;;;;;;;126.58;68.42;;;;;;;0.15;77.34;93763.43;1734904;81;21211;-50
2020/12/30 01:42:25;;;;;;;126.10;64.70;;;;;;;0.09;77.29;93748.06;1719674;83;21170;-50
2020/12/30 01:44:53;;;;;;;134.82;70.12;;;;;;;-0.03;77.06;93758.64;1719745;82;21063;-50
2020/12/30 01:47:21;;;;;;;134.10;67.35;;;;;;;-0.20;77.51;93759.61;1719759;83;21083;-50
2020/12/30 01:49:50;;;;;;;126.42;64.80;;;;;;;-0.24;77.63;93752.13;1719760;83;21060;-51
2020/12/30 01:52:18;;;;;;;115.60;58.52;;;;;;;-0.28;77.79;93762.97;1691618;83;21475;-51
2020/12/30 01:54:46;;;;;;;104.92;52.98;;;;;;;-0.30;78.07;93759.91;1719646;83;21211;-50
2020/12/30 01:57:13;;;;;;;127.92;64.37;;;;;;;-0.25;78.14;93764.11;1720058;83;21088;-50
2020/12/30 01:59:41;;;;;;;115.03;59.20;;;;;;;-0.30;78.08;93767.23;1720477;83;21083;-49
2020/12/30 02:02:10;;;;;;;117.57;58.75;;;;;;;-0.33;78.26;93774.22;1720527;83;21107;-50
2020/12/30 02:04:52;;;;;;;109.55;57.70;;;;;;;-0.27;78.48;93771.82;1720533;83;21216;-51
2020/12/30 02:07:23;;;;;;;107.17;54.37;;;;;;;-0.21;78.59;93767.53;1720550;83;21139;-50
2020/12/30 02:09:51;;;;;;;105.72;52.95;;;;;;;-0.10;78.48;93772.22;1720001;83;21148;-50
2020/12/30 02:12:19;;;;;;;96.53;48.05;;;;;;;-0.03;78.34;93780.27;1719961;83;21158;-50
2020/12/30 02:14:50;;;;;;;82.97;44.05;;;;;;;0.01;78.17;93789.87;1720010;83;21143;-49
2020/12/30 02:17:18;;;;;;;85.65;44.83;;;;;;;0.05;78.29;93788.64;1719968;83;22441;-49
2020/12/30 02:19:46;;;;;;;84.72;45.40;;;;;;;0.10;78.26;93785.52;1719972;83;21659;-50
2020/12/30 02:22:23;;;;;;;83.07;41.77;;;;;;;0.17;78.21;93785.42;1719954;83;21084;-50
2020/12/30 02:24:51;;;;;;;82.22;43.10;;;;;;;0.24;78.05;93783.22;1693966;83;21060;-50
2020/12/30 02:27:19;;;;;;;83.50;43.98;;;;;;;0.28;77.97;93770.42;1720087;83;21558;-50
2020/12/30 02:29:47;;;;;;;124.15;57.05;;;;;;;0.33;77.91;93773.44;1719972;83;21210;-49
2020/12/30 02:32:15;;;;;;;186.35;85.57;;;;;;;0.41;77.89;93766.76;1719888;83;21103;-50
2020/12/30 02:34:43;;;;;;;161.35;77.58;;;;;;;0.45;77.54;93772.88;1719965;83;21088;-51
2020/12/30 02:37:10;;;;;;;167.93;84.70;;;;;;;0.50;77.41;93777.08;1719908;83;21083;-50
2020/12/30 02:39:39;;;;;;;144.65;69.87;;;;;;;0.53;77.18;93769.50;1719952;82;21111;-50
2020/12/30 02:42:06;;;;;;;129.93;70.72;;;;;;;0.55;77.22;93772.59;1719941;83;21452;-51
2020/12/30 02:44:34;;;;;;;124.58;66.60;;;;;;;0.60;76.94;93762.66;1719842;83;21107;-50
2020/12/30 02:47:02;;;;;;;110.80;60.17;;;;;;;0.56;77.00;93778.93;1719936;83;21155;-51
2020/12/30 02:49:30;;;;;;;144.20;72.45;;;;;;;0.59;77.13;93767.89;1719953;83;21143;-51
2020/12/30 02:51:58;;;;;;;142.93;66.85;;;;;;;0.60;76.99;93762.05;1719956;83;21143;-50
2020/12/30 02:54:25;;;;;;;151.42;70.62;;;;;;;0.59;76.88;93769.99;1719946;83;22300;-50
2020/12/30 02:56:53;;;;;;;162.10;74.03;;;;;;;0.54;76.96;93752.87;1719725;83;21090;-51
2020/12/30 02:59:21;;;;;;;144.30;65.52;;;;;;;0.48;76.92;93770.74;1719925;83;21069;-50
2020/12/30 03:01:49;;;;;;;136.00;63.73;;;;;;;0.42;77.16;93762.88;1719926;83;21088;-50
2020/12/30 03:04:17;;;;;;;123.60;56.55;;;;;;;0.40;77.33;93773.34;1719947;83;21159;-50
2020/12/30 03:06:46;;;;;;;130.03;65.62;;;;;;;0.46;77.35;93766.33;1719925;83;21175;-51
2020/12/30 03:09:13;;;;;;;124.45;63.30;;;;;;;0.45;77.14;93766.72;1719864;83;21103;-50
2020/12/30 03:11:49;;;;;;;122.90;64.07;;;;;;;0.39;77.31;93756.94;1719866;83;21102;-50
2020/12/30 03:14:16;;;;;;;;;;;;;;;0.37;77.33;93760.63;1722582;83;21202;-50
2020/12/30 03:16:44;;;;;;;122.35;59.35;;;;;;;0.38;77.37;93759.46;1719923;83;20230;-49
2020/12/30 03:19:12;;;;;;;115.70;58.70;;;;;;;0.36;77.32;93753.70;1719889;83;21161;-50
2020/12/30 03:21:39;;;;;;;121.15;59.73;;;;;;;0.36;77.28;93740.75;1719857;83;21143;-50
2020/12/30 03:24:07;;;;;;;115.08;64.47;;;;;;;0.36;77.25;93737.47;1719865;83;21131;-51
2020/12/30 03:26:35;;;;;;;116.05;63.48;;;;;;;0.32;76.89;93731.92;1719915;83;21075;-51
2020/12/30 03:29:03;;;;;;;107.72;58.75;;;;;;;0.27;77.05;93734.52;1719922;83;21052;-50
2020/12/30 03:31:31;;;;;;;121.90;63.98;;;;;;;0.22;76.96;93728.78;1719938;83;21412;-51
2020/12/30 03:34:00;;;;;;;113.25;61.18;;;;;;;0.18;76.94;93739.64;1719926;83;21159;-50
2020/12/30 03:36:28;;;;;;;117.50;63.52;;;;;;;0.19;77.12;93736.36;1719884;83;21131;-50
2020/12/30 03:38:55;;;;;;;114.57;61.02;;;;;;;0.17;76.99;93735.41;1719832;82;21198;-50
2020/12/30 03:41:23;;;;;;;125.97;65.55;;;;;;;0.17;77.08;93724.59;1719922;83;21079;-50
2020/12/30 03:43:51;;;;;;;124.85;67.65;;;;;;;0.12;76.80;93719.64;1719934;83;21216;-50
2020/12/30 03:46:19;;;;;;;128.62;66.67;;;;;;;0.10;77.23;93725.26;1719812;83;21147;-50
2020/12/30 03:48:47;;;;;;;129.50;68.78;;;;;;;0.09;77.17;93728.56;1719889;83;21543;-50
2020/12/30 03:51:15;;;;;;;135.60;72.60;;;;;;;0.09;77.23;93728.56;1719853;83;21088;-50
2020/12/30 03:53:43;;;;;;;122.05;65.15;;;;;;;0.06;77.14;93728.59;1719930;83;21092;-50
2020/12/30 03:56:11;;;;;;;150.10;84.62;;;;;;;0.06;77.29;93729.35;1719842;83;21210;-50
2020/12/30 03:58:39;;;;;;;145.50;75.15;;;;;;;0.02;77.05;93723.23;1719850;83;21159;-51
2020/12/30 04:01:08;;;;;;;126.18;69.58;;;;;;;-0.02;77.18;93723.69;1716724;83;21587;-52
2020/12/30 04:03:36;;;;;;;109.75;62.35;;;;;;;-0.04;76.96;93719.27;1693291;83;21171;-50
2020/12/30 04:06:04;;;;;;;122.25;66.90;;;;;;;-0.10;77.39;93716.25;1719890;83;21128;-51
2020/12/30 04:08:32;;;;;;;126.65;67.87;;;;;;;-0.06;77.04;93703.45;1719903;83;21214;-51
2020/12/30 04:11:00;;;;;;;121.85;65.62;;;;;;;-0.10;77.00;93701.95;1719847;83;20989;-51
2020/12/30 04:13:28;;;;;;;132.27;74.05;;;;;;;-0.11;77.22;93704.48;1719884;83;21135;-52
2020/12/30 04:15:56;;;;;;;136.30;71.02;;;;;;;-0.10;77.11;93698.68;1719847;83;21183;-50
2020/12/30 04:18:24;;;;;;;127.58;65.75;;;;;;;-0.06;77.20;93704.05;1719925;83;21716;-50
2020/12/30 04:20:51;;;;;;;96.92;52.62;;;;;;;-0.02;77.12;93706.12;1719879;83;21389;-49
2020/12/30 04:23:20;;;;;;;112.20;63.95;;;;;;;0.00;76.95;93712.06;1719824;83;21151;-50
2020/12/30 04:25:48;;;;;;;139.65;73.62;;;;;;;0.02;77.04;93704.91;1719882;83;21151;-52
2020/12/30 04:28:16;;;;;;;110.63;66.17;;;;;;;0.04;76.91;93703.31;1719930;83;21206;-54
2020/12/30 04:30:44;;;;;;;150.87;83.60;;;;;;;0.02;76.81;93696.20;1719947;83;21092;-53
2020/12/30 04:33:12;;;;;;;190.22;100.95;;;;;;;0.04;76.76;93699.86;1719875;83;21386;-57
2020/12/30 04:35:40;;;;;;;215.15;116.88;;;;;;;0.02;76.57;93696.80;1719791;83;21868;-52
2020/12/30 04:38:07;;;;;;;200.25;107.07;;;;;;;-0.02;76.48;93700.71;1719827;83;21115;-53
2020/12/30 04:40:35;;;;;;;183.42;100.92;;;;;;;-0.01;76.92;93706.47;1719836;82;21060;-52
2020/12/30 04:43:03;;;;;;;170.55;93.12;;;;;;;0.13;76.84;93703.59;1719904;83;21064;-51
2020/12/30 04:45:32;;;;;;;146.75;81.28;;;;;;;0.21;76.33;93698.86;1719844;83;21290;-51
2020/12/30 04:48:00;;;;;;;138.50;79.95;;;;;;;0.23;76.33;93707.33;1719830;83;21171;-51
2020/12/30 04:50:28;;;;;;;144.97;81.37;;;;;;;0.32;76.07;93692.13;1719869;83;21123;-52
2020/12/30 04:52:56;;;;;;;158.45;86.55;;;;;;;0.34;75.68;93687.08;1693551;83;21204;-52
2020/12/30 04:55:24;;;;;;;161.60;88.60;;;;;;;0.32;75.55;93688.08;1693505;83;21085;-52
2020/12/30 04:58:06;;;;;;;164.60;92.75;;;;;;;0.36;75.85;93692.06;1712730;83;21207;-51
2020/12/30 05:00:38;;;;;;;161.80;87.85;;;;;;;0.44;75.52;93690.20;1706293;84;21137;-52
2020/12/30 05:03:10;;;;;;;148.13;82.27;;;;;;;0.48;75.28;93682.82;1706607;84;21236;-51
2020/12/30 05:05:40;;;;;;;154.82;82.37;;;;;;;0.50;75.24;93683.75;1706457;83;21163;-52
2020/12/30 05:08:14;;;;;;;161.88;93.27;;;;;;;0.58;75.19;93692.70;1706351;83;21123;-52
2020/12/30 05:10:44;;;;;;;139.50;81.25;;;;;;;0.68;74.93;93689.09;1706315;84;21268;-52
2020/12/30 05:13:13;;;;;;;143.37;82.35;;;;;;;0.76;74.87;93704.03;1706255;84;21100;-51
2020/12/30 05:15:41;;;;;;;144.25;77.92;;;;;;;0.89;74.96;93702.86;1706333;84;21077;-52
2020/12/30 05:18:10;;;;;;;129.40;77.08;;;;;;;0.99;74.46;93707.35;1706280;84;21136;-50
2020/12/30 05:20:38;;;;;;;112.08;66.15;;;;;;;1.01;74.27;93714.47;1706339;84;21167;-55
2020/12/30 05:23:09;;;;;;;137.10;75.92;;;;;;;1.04;74.20;93723.89;1706288;84;21216;-52
2020/12/30 05:25:42;;;;;;;123.67;74.80;;;;;;;0.96;73.60;93715.69;1706303;82;21155;-56
2020/12/30 05:28:13;;;;;;;143.90;83.65;;;;;;;0.75;73.29;93713.32;1706335;83;21084;-55
2020/12/30 05:30:42;;;;;;;150.65;86.08;;;;;;;0.56;73.48;93726.17;1706348;83;21088;-52
2020/12/30 05:33:10;;;;;;;172.68;95.55;;;;;;;0.47;73.60;93725.93;1706345;83;21119;-54
2020/12/30 05:35:38;;;;;;;157.55;90.92;;;;;;;0.44;73.78;93729.42;1706381;84;22054;-53
2020/12/30 05:38:06;;;;;;;163.07;89.97;;;;;;;0.44;73.75;93720.56;1706293;84;21190;-53
2020/12/30 05:40:34;;;;;;;154.97;89.28;;;;;;;0.39;74.06;93725.83;1706274;82;21076;-53
2020/12/30 05:43:13;;;;;;;145.60;87.75;;;;;;;0.39;74.05;93715.02;1706355;84;21081;-52
2020/12/30 05:45:51;;;;;;;141.85;82.45;;;;;;;0.35;74.26;93714.88;1706497;84;21112;-53
2020/12/30 05:48:22;;;;;;;129.32;76.07;;;;;;;0.36;74.66;93718.53;1706320;83;21215;-53
2020/12/30 05:50:54;;;;;;;133.85;73.92;;;;;;;0.46;74.77;93720.91;1706498;84;21143;-53
2020/12/30 05:53:22;;;;;;;134.40;81.90;;;;;;;0.55;74.93;93731.41;1706732;84;21068;-53
2020/12/30 05:55:52;;;;;;;144.13;83.22;;;;;;;0.72;74.80;93717.42;1706466;84;21143;-54
2020/12/30 05:58:19;;;;;;;170.25;101.78;;;;;;;0.80;74.37;93720.97;1714206;82;21577;-52
2020/12/30 06:00:47;;;;;;;181.00;106.03;;;;;;;0.81;73.95;93711.67;1719950;83;21279;-54
2020/12/30 06:03:15;;;;;;;180.45;102.92;;;;;;;0.77;73.80;93705.55;1719898;83;21103;-55
2020/12/30 06:05:43;;;;;;;208.28;122.53;;;;;;;0.79;73.83;93709.22;1720048;83;21107;-53
2020/12/30 06:08:11;;;;;;;225.43;125.60;;;;;;;0.84;73.81;93714.94;1719950;83;21064;-54
2020/12/30 06:10:42;;;;;;;220.35;126.75;;;;;;;0.86;73.43;93718.57;1719992;83;21119;-53
2020/12/30 06:13:12;;;;;;;217.00;120.50;;;;;;;0.82;73.34;93724.63;1719468;83;21207;-53
2020/12/30 06:15:39;;;;;;;225.43;127.05;;;;;;;0.86;73.27;93729.39;1719938;83;21171;-54
2020/12/30 06:18:10;;;;;;;245.55;136.80;;;;;;;0.89;72.96;93724.52;1693810;83;21154;-54
2020/12/30 06:20:40;;;;;;;251.77;141.35;;;;;;;0.85;72.97;93728.64;1694106;83;21183;-55
2020/12/30 06:23:10;;;;;;;232.27;132.90;;;;;;;0.89;73.12;93727.22;1720014;83;21084;-54
2020/12/30 06:25:39;;;;;;;215.00;123.87;;;;;;;0.94;72.61;93720.01;1720003;83;21542;-53
2020/12/30 06:28:13;;;;;;;212.68;126.45;;;;;;;0.81;72.57;93706.26;1719506;83;21647;-55
2020/12/30 06:30:43;;;;;;;241.88;137.75;;;;;;;0.76;72.85;93707.34;1706063;83;21102;-53
2020/12/30 06:33:12;;;;;;;223.30;130.50;;;;;;;0.75;73.06;93707.91;1687647;83;21108;-53
2020/12/30 06:35:43;;;;;;;345.63;188.03;;;;;;;0.76;73.01;93708.69;1682438;85;21138;-55
2020/12/30 06:41:07;;;;;;;293.80;160.22;;;;;;;0.86;73.04;93705.03;1841849;76;22482;-53
2020/12/30 06:43:48;;;;;;;333.98;179.95;;;;;;;0.78;73.24;93728.73;1808556;78;20935;-55
2020/12/30 06:46:35;;;;;;;313.85;172.17;;;;;;;0.82;73.00;93728.12;1829968;78;21198;-55
2020/12/30 06:49:05;;;;;;;295.03;165.43;;;;;;;0.85;73.06;93725.94;1840470;77;21048;-59
2020/12/30 06:51:40;;;;;;;272.07;159.27;;;;;;;0.91;72.98;93726.22;1840819;77;21150;-54
2020/12/30 06:54:08;;;;;;;265.18;158.07;;;;;;;0.96;72.97;93733.29;1809480;78;21183;-56
2020/12/30 06:56:45;;;;;;;287.30;163.20;;;;;;;1.04;73.24;93722.55;1815018;78;21157;-54
2020/12/30 06:59:32;;;;;;;238.62;133.32;;;;;;;1.16;73.18;93720.58;1804565;78;22114;-55
2020/12/30 07:02:02;;;;;;;231.93;138.65;;;;;;;1.21;72.74;93732.89;1796178;77;21204;-56
2020/12/30 07:04:32;;;;;;;252.38;146.93;;;;;;;1.04;72.71;93723.89;1808557;77;21146;-54
2020/12/30 07:07:05;;;;;;;236.97;138.57;;;;;;;0.92;72.93;93727.17;1801564;78;21244;-55
2020/12/30 07:09:40;;;;;;;228.50;137.62;;;;;;;0.90;73.25;93728.75;1778945;78;21152;-57
2020/12/30 07:12:10;;;;;;;238.28;135.37;;;;;;;0.92;73.26;93719.66;1777748;78;21365;-55
2020/12/30 07:14:39;;;;;;;252.90;145.12;;;;;;;0.90;73.26;93717.34;1779537;78;21511;-56
2020/12/30 07:17:09;;;;;;;275.32;154.80;;;;;;;0.88;73.42;93720.28;1798608;78;21444;-55
2020/12/30 07:22:28;;;;;;;256.17;141.62;;;;;;;1.12;74.07;93715.07;1874236;76;22210;-54
2020/12/30 07:24:57;;;;;;;263.02;153.45;;;;;;;1.23;74.10;93717.78;1826485;77;21182;-60
2020/12/30 07:27:29;;;;;;;284.27;157.18;;;;;;;1.40;73.64;93728.90;1837092;77;21578;-59
2020/12/30 07:29:58;;;;;;;315.82;184.28;;;;;;;1.41;73.25;93723.66;1836106;77;21261;-57
2020/12/30 07:32:28;;;;;;;358.15;212.40;;;;;;;1.35;73.28;93723.94;1793727;77;21193;-57
2020/12/30 07:35:00;;;;;;;298.25;179.42;;;;;;;1.41;73.38;93730.43;1781120;77;21171;-56
2020/12/30 07:37:29;;;;;;;390.40;236.57;;;;;;;1.48;73.25;93732.25;1833613;76;21185;-55
2020/12/30 07:39:58;;;;;;;358.20;204.55;;;;;;;1.43;73.14;93729.42;1838154;76;21360;-56
2020/12/30 07:42:36;;;;;;;363.15;213.47;;;;;;;1.35;73.33;93729.35;1810791;77;21599;-56
2020/12/30 07:45:13;;;;;;;345.52;203.22;;;;;;;1.39;73.49;93716.53;1810256;77;21147;-57
2020/12/30 07:47:45;;;;;;;409.48;238.72;;;;;;;1.43;73.54;93728.06;1811705;78;21203;-57
2020/12/30 07:50:18;;;;;;;412.32;238.70;;;;;;;1.39;73.48;93723.31;1768370;80;21192;-56
2020/12/30 07:52:51;;;;;;;383.32;228.18;;;;;;;1.36;73.37;93724.71;1798101;79;21191;-54
2020/12/30 07:55:26;;;;;;;401.00;234.90;;;;;;;1.30;73.59;93716.29;1806548;79;21194;-56
2020/12/30 07:57:57;;;;;;;371.20;218.97;;;;;;;1.24;73.73;93719.87;1810010;79;21130;-59
2020/12/30 08:00:25;;;;;;;333.82;200.00;;;;;;;1.24;74.28;93730.14;1773725;80;21142;-56
2020/12/30 08:02:56;;;;;;;362.63;215.03;;;;;;;1.41;74.35;93726.94;1742829;82;21578;-55
2020/12/30 08:05:24;;;;;;;363.52;215.47;;;;;;;1.56;74.43;93720.87;1746294;80;21210;-57
2020/12/30 08:07:56;;;;;;;334.73;194.70;;;;;;;1.73;74.41;93716.30;1770492;79;21202;-56
2020/12/30 08:10:26;;;;;;;344.93;209.10;;;;;;;1.91;74.17;93722.90;1768781;79;21170;-58
2020/12/30 08:12:55;;;;;;;265.37;154.45;;;;;;;2.00;73.89;93708.20;1811597;77;21067;-53
2020/12/30 08:15:24;;;;;;;307.62;188.12;;;;;;;2.09;73.73;93715.17;1835218;77;21206;-55
2020/12/30 08:17:55;;;;;;;241.42;146.50;;;;;;;2.18;73.90;93716.75;1775404;78;21677;-55
2020/12/30 08:20:24;;;;;;;196.68;116.88;;;;;;;2.34;73.73;93710.02;1785049;77;21170;-58
2020/12/30 08:22:58;;;;;;;240.18;143.15;;;;;;;2.50;73.48;93706.00;1798270;79;21193;-54
2020/12/30 08:25:26;;;;;;;193.57;118.53;;;;;;;2.61;73.50;93700.50;1752060;81;21615;-52
2020/12/30 08:27:55;;;;;;;174.45;109.25;;;;;;;2.77;73.42;93697.81;1772126;79;21161;-55
2020/12/30 08:30:25;;;;;;;172.15;104.78;;;;;;;2.95;73.16;93690.02;1767340;79;21911;-56
2020/12/30 08:33:00;;;;;;;190.92;120.08;;;;;;;3.05;72.72;93681.45;1796651;79;21192;-58
2020/12/30 08:35:31;;;;;;;197.10;122.95;;;;;;;3.15;72.49;93680.41;1731912;79;21655;-57
2020/12/30 08:38:15;;;;;;;166.65;101.33;;;;;;;3.25;72.23;93676.07;1775113;79;21181;-56
2020/12/30 08:40:51;;;;;;;180.10;112.97;;;;;;;3.30;71.89;93677.52;1786398;79;21474;-56
2020/12/30 08:43:44;;;;;;;239.42;150.07;;;;;;;3.30;71.79;93671.50;1742379;80;21405;-57
2020/12/30 08:46:20;;;;;;;223.30;142.40;;;;;;;3.29;71.77;93675.98;1745715;80;21223;-56
2020/12/30 08:48:51;;;;;;;187.65;118.70;;;;;;;3.40;71.54;93665.63;1772912;80;21644;-53
2020/12/30 08:51:31;;;;;;;175.80;106.25;;;;;;;3.57;71.19;93659.70;1768017;80;21186;-58
2020/12/30 08:53:59;;;;;;;118.57;71.33;;;;;;;3.74;71.06;93660.61;1711802;83;21176;-59
2020/12/30 08:56:29;;;;;;;109.85;67.12;;;;;;;4.10;70.30;93646.19;1723308;82;21380;-58
2020/12/30 08:58:58;;;;;;;93.47;60.28;;;;;;;4.29;70.08;93642.52;1734688;82;21533;-57
2020/12/30 09:01:31;;;;;;;78.45;50.17;;;;;;;4.32;69.67;93637.56;1726485;82;21143;-54
2020/12/30 09:04:10;;;;;;;45.28;27.20;;;;;;;4.64;69.56;93637.34;1759127;81;21988;-55
2020/12/30 09:06:39;;;;;;;44.53;29.95;;;;;;;4.99;68.80;93634.87;1770681;80;21117;-54
2020/12/30 09:09:14;;;;;;;34.73;25.00;;;;;;;5.45;68.16;93634.13;1813951;78;22203;-55
2020/12/30 09:11:50;;;;;;;41.88;29.18;;;;;;;5.77;66.96;93629.70;1796525;79;21463;-55
2020/12/30 09:14:22;;;;;;;71.02;46.55;;;;;;;5.89;66.38;93633.77;1771774;80;21206;-55
2020/12/30 09:16:58;;;;;;;89.97;60.35;;;;;;;6.02;65.82;93633.70;1780651;80;21214;-55
2020/12/30 09:19:26;;;;;;;98.15;64.58;;;;;;;6.19;65.14;93622.74;1780716;79;21139;-58
2020/12/30 09:22:11;;;;;;;108.52;67.45;;;;;;;6.32;64.76;93620.70;1777796;80;22075;-55
2020/12/30 09:24:42;;;;;;;89.52;57.70;;;;;;;6.48;64.29;93617.75;1775532;79;21075;-57
2020/12/30 09:27:23;;;;;;;115.67;73.33;;;;;;;6.60;64.23;93602.63;1778806;79;21733;-54
2020/12/30 09:30:19;;;;;;;109.40;69.80;;;;;;;6.70;64.22;93608.27;1796350;79;21162;-55
2020/12/30 09:32:54;;;;;;;118.30;77.42;;;;;;;6.87;63.67;93598.62;1786303;79;21133;-56
2020/12/30 09:35:28;;;;;;;111.83;68.25;;;;;;;6.97;63.70;93579.67;1753012;80;21391;-53
2020/12/30 09:37:58;;;;;;;102.60;64.85;;;;;;;7.28;63.37;93578.36;1784740;79;21670;-58
2020/12/30 09:40:27;;;;;;;86.72;55.78;;;;;;;7.59;61.99;93566.69;1808942;78;22397;-54
2020/12/30 09:43:11;;;;;;;73.28;47.45;;;;;;;7.79;61.63;93562.88;1793248;79;21068;-55
2020/12/30 09:45:39;;;;;;;71.28;46.02;;;;;;;7.90;60.92;93555.56;1799066;79;21365;-57
2020/12/30 09:48:17;;;;;;;73.45;46.98;;;;;;;7.86;61.00;93548.86;1751016;81;21367;-54
2020/12/30 09:50:49;;;;;;;82.50;51.30;;;;;;;7.92;60.39;93552.50;1706474;82;21175;-55
2020/12/30 09:53:18;;;;;;;78.62;48.78;;;;;;;7.99;60.55;93539.88;1756695;81;21566;-59
2020/12/30 09:55:47;;;;;;;82.70;53.17;;;;;;;8.43;60.41;93546.47;1746248;81;21138;-54
2020/12/30 09:58:16;;;;;;;88.92;57.58;;;;;;;9.00;58.50;93537.06;1725538;83;21312;-57
2020/12/30 10:00:45;;;;;;;94.95;59.15;;;;;;;9.41;57.76;93523.86;1750314;80;21362;-57
2020/12/30 10:03:14;;;;;;;71.67;47.85;;;;;;;9.60;57.16;93529.36;1761379;81;21204;-54
2020/12/30 10:05:43;;;;;;;82.62;52.48;;;;;;;9.65;56.60;93519.83;1753181;81;21199;-57
2020/12/30 10:08:11;;;;;;;107.00;72.75;;;;;;;9.89;57.05;93514.29;1766686;81;21209;-54
2020/12/30 10:10:39;;;;;;;95.35;62.58;;;;;;;10.37;56.12;93513.66;1713639;83;21682;-54
2020/12/30 10:13:07;;;;;;;106.78;73.67;;;;;;;10.86;54.47;93519.95;1718274;83;21217;-53
2020/12/30 10:15:35;;;;;;;133.50;88.07;;;;;;;11.38;53.89;93504.39;1736814;81;21148;-54
2020/12/30 10:18:03;;;;;;;96.10;67.30;;;;;;;11.86;52.46;93508.99;1734297;82;21640;-58
2020/12/30 10:20:32;;;;;;;96.35;62.48;;;;;;;12.05;50.83;93503.30;1743783;81;21192;-55
2020/12/30 10:23:00;;;;;;;91.53;60.60;;;;;;;11.91;50.60;93502.03;1755070;80;21622;-56
2020/12/30 10:25:29;;;;;;;72.70;50.33;;;;;;;11.86;50.52;93489.70;1751949;81;23069;-55
2020/12/30 10:28:02;;;;;;;75.08;50.90;;;;;;;12.02;50.67;93486.36;1742381;80;21198;-56
2020/12/30 10:30:31;;;;;;;71.00;48.05;;;;;;;12.19;49.64;93496.16;1742614;81;21157;-55
2020/12/30 10:33:01;;;;;;;63.52;42.73;;;;;;;12.16;50.09;93464.83;1758071;80;21193;-54
2020/12/30 10:35:29;;;;;;;63.98;43.80;;;;;;;12.43;49.45;93480.84;1755498;80;21662;-56
2020/12/30 10:37:58;;;;;;;61.58;43.58;;;;;;;12.53;48.99;93450.47;1747371;80;21458;-54
2020/12/30 10:40:28;;;;;;;79.62;52.48;;;;;;;12.66;48.97;93461.83;1775716;79;21080;-53
2020/12/30 10:42:56;;;;;;;84.05;58.08;;;;;;;12.66;48.71;93435.00;1765357;80;21702;-56
2020/12/30 10:45:25;;;;;;;85.85;56.98;;;;;;;12.68;49.06;93451.82;1759225;81;21509;-57
2020/12/30 10:47:53;;;;;;;97.08;67.03;;;;;;;12.80;49.32;93431.95;1755870;81;21607;-56
2020/12/30 10:50:21;;;;;;;79.75;57.20;;;;;;;12.99;48.55;93434.47;1760847;81;21342;-55
2020/12/30 10:52:51;;;;;;;79.53;54.30;;;;;;;13.04;47.59;93434.50;1766508;80;21168;-55
2020/12/30 10:55:22;;;;;;;73.62;51.20;;;;;;;13.12;48.20;93435.54;1759895;80;21188;-55
2020/12/30 10:57:52;;;;;;;82.17;53.33;;;;;;;13.52;48.06;93415.13;1758916;80;21172;-56
2020/12/30 11:00:25;;;;;;;79.82;56.83;;;;;;;14.11;46.49;93432.33;1772226;80;21618;-55
2020/12/30 11:02:57;;;;;;;86.08;59.70;;;;;;;14.53;46.06;93388.00;1775330;80;22207;-57
2020/12/30 11:05:27;;;;;;;81.15;59.63;;;;;;;14.56;44.75;93404.97;1765200;80;21150;-58
2020/12/30 11:07:55;;;;;;;89.70;59.38;;;;;;;14.44;45.45;93395.16;1740661;81;21204;-55
2020/12/30 11:10:23;;;;;;;85.32;59.93;;;;;;;14.44;44.62;93413.14;1760932;81;21118;-56
2020/12/30 11:12:51;;;;;;;76.25;53.87;;;;;;;14.22;44.82;93388.13;1740681;81;21173;-55
2020/12/30 11:15:19;;;;;;;75.75;54.38;;;;;;;14.31;45.08;93394.78;1760507;81;21393;-55
2020/12/30 11:17:47;;;;;;;73.35;51.65;;;;;;;14.63;45.35;93396.79;1773792;80;21097;-57
2020/12/30 11:20:16;;;;;;;23.30;15.65;;;;;;;14.95;44.68;93371.05;1760772;81;21141;-53
2020/12/30 11:22:44;;;;;;;5.03;3.27;;;;;;;14.91;43.30;93370.55;1773971;79;21137;-54
2020/12/30 11:25:13;;;;;;;5.30;3.47;;;;;;;14.94;43.30;93356.31;1773964;80;21200;-53
2020/12/30 11:27:42;;;;;;;4.08;2.72;;;;;;;15.37;43.15;93364.38;1773648;80;21218;-54
2020/12/30 11:30:10;;;;;;;6.10;3.12;;;;;;;15.95;41.55;93373.48;1773764;80;21514;-54
2020/12/30 11:32:39;;;;;;;4.80;3.25;;;;;;;16.47;41.31;93358.23;1773861;80;21081;-54